sensor_id;sensor_type;location;lat;lon;timestamp;P1;durP1;ratioP1;P2;durP2;ratioP2
69795;SDS011;57073;45.650;9.612;2023-07-31T00:04:09;7.40;;;6.70;;
69795;SDS011;57073;45.650;9.612;2023-07-31T00:09:10;7.87;;;5.73;;
69795;SDS011;57073;45.650;9.612;2023-07-31T00:14:10;9.20;;;8.20;;
69795;SDS011;57073;45.650;9.612;2023-07-31T00:19:10;8.23;;;5.63;;
69795;SDS011;57073;45.650;9.612;2023-07-31T00:24:11;7.90;;;5.50;;
69795;SDS011;57073;45.650;9.612;2023-07-31T00:29:11;6.63;;;5.40;;
69795;SDS011;57073;45.650;9.612;2023-07-31T00:34:11;6.97;;;5.10;;
69795;SDS011;57073;45.650;9.612;2023-07-31T00:39:12;6.27;;;5.03;;
69795;SDS011;57073;45.650;9.612;2023-07-31T00:44:12;7.20;;;5.40;;
69795;SDS011;57073;45.650;9.612;2023-07-31T00:49:13;7.43;;;4.97;;
69795;SDS011;57073;45.650;9.612;2023-07-31T00:54:13;6.17;;;5.17;;
69795;SDS011;57073;45.650;9.612;2023-07-31T00:59:14;6.30;;;5.07;;
69795;SDS011;57073;45.650;9.612;2023-07-31T01:04:14;6.17;;;5.50;;
69795;SDS011;57073;45.650;9.612;2023-07-31T01:09:27;7.82;;;5.78;;
69795;SDS011;57073;45.650;9.612;2023-07-31T01:14:36;7.53;;;6.30;;
69795;SDS011;57073;45.650;9.612;2023-07-31T01:19:36;7.95;;;6.00;;
69795;SDS011;57073;45.650;9.612;2023-07-31T01:30:00;6.80;;;5.40;;
69795;SDS011;57073;45.650;9.612;2023-07-31T01:35:10;7.22;;;5.30;;
69795;SDS011;57073;45.650;9.612;2023-07-31T01:40:11;5.87;;;4.87;;
69795;SDS011;57073;45.650;9.612;2023-07-31T01:45:11;6.77;;;5.30;;
69795;SDS011;57073;45.650;9.612;2023-07-31T01:50:12;6.07;;;5.15;;
69795;SDS011;57073;45.650;9.612;2023-07-31T01:55:12;6.43;;;4.93;;
69795;SDS011;57073;45.650;9.612;2023-07-31T02:00:13;6.13;;;4.93;;
69795;SDS011;57073;45.650;9.612;2023-07-31T02:05:13;5.97;;;4.60;;
69795;SDS011;57073;45.650;9.612;2023-07-31T02:10:13;6.27;;;4.67;;
69795;SDS011;57073;45.650;9.612;2023-07-31T02:15:14;6.80;;;4.73;;
69795;SDS011;57073;45.650;9.612;2023-07-31T02:20:14;4.73;;;4.23;;
69795;SDS011;57073;45.650;9.612;2023-07-31T02:25:15;5.90;;;4.60;;
69795;SDS011;57073;45.650;9.612;2023-07-31T02:30:15;5.90;;;4.37;;
69795;SDS011;57073;45.650;9.612;2023-07-31T02:35:16;4.80;;;4.30;;
69795;SDS011;57073;45.650;9.612;2023-07-31T02:40:16;7.10;;;4.40;;
69795;SDS011;57073;45.650;9.612;2023-07-31T02:45:17;6.17;;;4.27;;
69795;SDS011;57073;45.650;9.612;2023-07-31T02:50:17;7.65;;;4.55;;
69795;SDS011;57073;45.650;9.612;2023-07-31T02:55:17;6.33;;;4.40;;
69795;SDS011;57073;45.650;9.612;2023-07-31T03:00:18;5.20;;;4.23;;
69795;SDS011;57073;45.650;9.612;2023-07-31T03:05:19;7.00;;;4.23;;
69795;SDS011;57073;45.650;9.612;2023-07-31T03:10:19;4.40;;;4.00;;
69795;SDS011;57073;45.650;9.612;2023-07-31T03:15:19;6.27;;;4.67;;
69795;SDS011;57073;45.650;9.612;2023-07-31T03:20:20;4.50;;;3.97;;
69795;SDS011;57073;45.650;9.612;2023-07-31T03:25:20;5.00;;;4.20;;
69795;SDS011;57073;45.650;9.612;2023-07-31T03:30:20;4.90;;;4.00;;
69795;SDS011;57073;45.650;9.612;2023-07-31T03:35:21;5.50;;;3.80;;
69795;SDS011;57073;45.650;9.612;2023-07-31T03:40:21;5.30;;;4.37;;
69795;SDS011;57073;45.650;9.612;2023-07-31T03:45:21;5.43;;;4.20;;
69795;SDS011;57073;45.650;9.612;2023-07-31T03:50:22;6.87;;;4.53;;
69795;SDS011;57073;45.650;9.612;2023-07-31T03:55:22;5.35;;;4.20;;
69795;SDS011;57073;45.650;9.612;2023-07-31T04:00:23;7.93;;;4.13;;
69795;SDS011;57073;45.650;9.612;2023-07-31T04:05:23;6.77;;;4.53;;
69795;SDS011;57073;45.650;9.612;2023-07-31T04:10:24;5.57;;;3.90;;
69795;SDS011;57073;45.650;9.612;2023-07-31T04:15:24;5.77;;;4.10;;
69795;SDS011;57073;45.650;9.612;2023-07-31T04:20:24;5.50;;;3.90;;
69795;SDS011;57073;45.650;9.612;2023-07-31T04:25:25;4.77;;;3.93;;
69795;SDS011;57073;45.650;9.612;2023-07-31T04:30:25;8.00;;;3.80;;
69795;SDS011;57073;45.650;9.612;2023-07-31T04:35:26;7.53;;;4.20;;
69795;SDS011;57073;45.650;9.612;2023-07-31T04:40:26;5.33;;;4.23;;
69795;SDS011;57073;45.650;9.612;2023-07-31T04:45:26;6.17;;;4.30;;
69795;SDS011;57073;45.650;9.612;2023-07-31T04:50:27;6.87;;;4.27;;
69795;SDS011;57073;45.650;9.612;2023-07-31T04:55:27;8.00;;;4.20;;
69795;SDS011;57073;45.650;9.612;2023-07-31T05:00:28;4.83;;;4.33;;
69795;SDS011;57073;45.650;9.612;2023-07-31T05:05:28;5.43;;;4.50;;
69795;SDS011;57073;45.650;9.612;2023-07-31T05:10:28;4.73;;;3.80;;
69795;SDS011;57073;45.650;9.612;2023-07-31T05:15:29;4.50;;;3.70;;
69795;SDS011;57073;45.650;9.612;2023-07-31T05:20:29;5.27;;;4.00;;
69795;SDS011;57073;45.650;9.612;2023-07-31T05:25:30;5.20;;;3.97;;
69795;SDS011;57073;45.650;9.612;2023-07-31T05:30:30;5.93;;;4.10;;
69795;SDS011;57073;45.650;9.612;2023-07-31T05:35:31;6.10;;;4.33;;
69795;SDS011;57073;45.650;9.612;2023-07-31T05:40:34;4.13;;;3.70;;
69795;SDS011;57073;45.650;9.612;2023-07-31T05:45:35;4.47;;;3.95;;
69795;SDS011;57073;45.650;9.612;2023-07-31T05:50:36;4.93;;;4.00;;
69795;SDS011;57073;45.650;9.612;2023-07-31T05:55:39;5.43;;;4.23;;
69795;SDS011;57073;45.650;9.612;2023-07-31T06:00:39;5.53;;;3.73;;
69795;SDS011;57073;45.650;9.612;2023-07-31T06:05:41;6.47;;;4.00;;
69795;SDS011;57073;45.650;9.612;2023-07-31T06:10:41;5.33;;;3.57;;
69795;SDS011;57073;45.650;9.612;2023-07-31T06:15:42;4.13;;;3.63;;
69795;SDS011;57073;45.650;9.612;2023-07-31T06:20:42;5.82;;;3.42;;
69795;SDS011;57073;45.650;9.612;2023-07-31T06:25:44;4.60;;;3.43;;
69795;SDS011;57073;45.650;9.612;2023-07-31T06:30:44;3.93;;;3.53;;
69795;SDS011;57073;45.650;9.612;2023-07-31T06:35:44;6.20;;;3.40;;
69795;SDS011;57073;45.650;9.612;2023-07-31T06:40:45;5.63;;;3.35;;
69795;SDS011;57073;45.650;9.612;2023-07-31T06:45:46;6.37;;;4.00;;
69795;SDS011;57073;45.650;9.612;2023-07-31T06:50:48;5.10;;;3.80;;
69795;SDS011;57073;45.650;9.612;2023-07-31T06:55:48;5.07;;;4.00;;
69795;SDS011;57073;45.650;9.612;2023-07-31T07:00:51;5.43;;;3.60;;
69795;SDS011;57073;45.650;9.612;2023-07-31T07:05:52;5.07;;;3.70;;
69795;SDS011;57073;45.650;9.612;2023-07-31T07:10:52;4.90;;;3.80;;
69795;SDS011;57073;45.650;9.612;2023-07-31T07:15:52;4.10;;;3.60;;
69795;SDS011;57073;45.650;9.612;2023-07-31T07:20:53;4.03;;;3.60;;
69795;SDS011;57073;45.650;9.612;2023-07-31T07:25:54;4.70;;;3.55;;
69795;SDS011;57073;45.650;9.612;2023-07-31T07:30:54;6.53;;;3.63;;
69795;SDS011;57073;45.650;9.612;2023-07-31T07:35:55;5.20;;;3.67;;
69795;SDS011;57073;45.650;9.612;2023-07-31T07:40:55;6.03;;;4.20;;
69795;SDS011;57073;45.650;9.612;2023-07-31T07:45:55;10.43;;;4.23;;
69795;SDS011;57073;45.650;9.612;2023-07-31T07:50:56;4.77;;;3.70;;
69795;SDS011;57073;45.650;9.612;2023-07-31T07:55:56;5.10;;;3.80;;
69795;SDS011;57073;45.650;9.612;2023-07-31T08:00:56;3.80;;;3.40;;
69795;SDS011;57073;45.650;9.612;2023-07-31T08:05:57;5.23;;;2.90;;
69795;SDS011;57073;45.650;9.612;2023-07-31T08:11:01;3.03;;;2.72;;
69795;SDS011;57073;45.650;9.612;2023-07-31T08:16:02;3.97;;;2.63;;
69795;SDS011;57073;45.650;9.612;2023-07-31T08:21:04;3.23;;;2.60;;
69795;SDS011;57073;45.650;9.612;2023-07-31T08:26:05;2.92;;;2.30;;
69795;SDS011;57073;45.650;9.612;2023-07-31T08:31:05;3.30;;;2.40;;
69795;SDS011;57073;45.650;9.612;2023-07-31T08:36:05;3.80;;;2.60;;
69795;SDS011;57073;45.650;9.612;2023-07-31T08:41:06;3.53;;;2.60;;
69795;SDS011;57073;45.650;9.612;2023-07-31T08:46:06;2.60;;;2.40;;
69795;SDS011;57073;45.650;9.612;2023-07-31T08:51:07;4.03;;;3.00;;
69795;SDS011;57073;45.650;9.612;2023-07-31T08:56:07;6.33;;;2.97;;
69795;SDS011;57073;45.650;9.612;2023-07-31T09:01:08;4.93;;;2.93;;
69795;SDS011;57073;45.650;9.612;2023-07-31T09:06:09;3.30;;;3.00;;
69795;SDS011;57073;45.650;9.612;2023-07-31T09:11:10;3.13;;;2.63;;
69795;SDS011;57073;45.650;9.612;2023-07-31T09:16:12;2.72;;;2.50;;
69795;SDS011;57073;45.650;9.612;2023-07-31T09:21:12;3.33;;;3.03;;
69795;SDS011;57073;45.650;9.612;2023-07-31T09:26:28;3.73;;;3.07;;
69795;SDS011;57073;45.650;9.612;2023-07-31T09:31:32;3.63;;;2.60;;
69795;SDS011;57073;45.650;9.612;2023-07-31T09:36:42;4.90;;;2.73;;
69795;SDS011;57073;45.650;9.612;2023-07-31T09:41:44;4.25;;;3.00;;
69795;SDS011;57073;45.650;9.612;2023-07-31T09:46:53;3.00;;;2.55;;
69795;SDS011;57073;45.650;9.612;2023-07-31T09:51:53;3.93;;;2.87;;
69795;SDS011;57073;45.650;9.612;2023-07-31T09:56:54;3.47;;;3.00;;
69795;SDS011;57073;45.650;9.612;2023-07-31T10:01:54;3.63;;;3.00;;
69795;SDS011;57073;45.650;9.612;2023-07-31T10:06:56;3.25;;;2.90;;
69795;SDS011;57073;45.650;9.612;2023-07-31T10:12:01;5.00;;;3.03;;
69795;SDS011;57073;45.650;9.612;2023-07-31T10:17:06;5.67;;;3.33;;
69795;SDS011;57073;45.650;9.612;2023-07-31T10:22:07;4.43;;;3.80;;
69795;SDS011;57073;45.650;9.612;2023-07-31T10:27:08;4.65;;;4.25;;
69795;SDS011;57073;45.650;9.612;2023-07-31T10:32:10;4.17;;;3.77;;
69795;SDS011;57073;45.650;9.612;2023-07-31T10:42:33;5.95;;;3.50;;
69795;SDS011;57073;45.650;9.612;2023-07-31T10:47:45;5.80;;;4.07;;
69795;SDS011;57073;45.650;9.612;2023-07-31T10:52:47;5.93;;;4.60;;
69795;SDS011;57073;45.650;9.612;2023-07-31T10:57:52;6.25;;;5.22;;
69795;SDS011;57073;45.650;9.612;2023-07-31T11:08:23;4.70;;;4.25;;
69795;SDS011;57073;45.650;9.612;2023-07-31T11:13:25;4.70;;;4.03;;
69795;SDS011;57073;45.650;9.612;2023-07-31T11:18:28;4.57;;;4.10;;
69795;SDS011;57073;45.650;9.612;2023-07-31T11:23:28;5.30;;;4.80;;
69795;SDS011;57073;45.650;9.612;2023-07-31T11:28:31;5.40;;;4.03;;
69795;SDS011;57073;45.650;9.612;2023-07-31T11:33:35;4.05;;;3.65;;
69795;SDS011;57073;45.650;9.612;2023-07-31T11:38:35;4.30;;;3.87;;
69795;SDS011;57073;45.650;9.612;2023-07-31T11:43:35;7.70;;;4.10;;
69795;SDS011;57073;45.650;9.612;2023-07-31T11:48:37;4.73;;;3.03;;
69795;SDS011;57073;45.650;9.612;2023-07-31T11:53:41;4.07;;;3.50;;
69795;SDS011;57073;45.650;9.612;2023-07-31T11:58:48;5.03;;;3.53;;
69795;SDS011;57073;45.650;9.612;2023-07-31T12:03:50;4.55;;;4.10;;
69795;SDS011;57073;45.650;9.612;2023-07-31T12:08:51;4.33;;;3.93;;
69795;SDS011;57073;45.650;9.612;2023-07-31T12:13:51;3.73;;;3.40;;
69795;SDS011;57073;45.650;9.612;2023-07-31T12:18:51;4.57;;;4.17;;
69795;SDS011;57073;45.650;9.612;2023-07-31T12:23:52;4.90;;;4.05;;
69795;SDS011;57073;45.650;9.612;2023-07-31T12:28:54;3.63;;;3.33;;
69795;SDS011;57073;45.650;9.612;2023-07-31T12:33:54;4.53;;;3.35;;
69795;SDS011;57073;45.650;9.612;2023-07-31T12:38:55;4.23;;;3.90;;
69795;SDS011;57073;45.650;9.612;2023-07-31T12:43:58;4.43;;;3.90;;
69795;SDS011;57073;45.650;9.612;2023-07-31T12:48:58;4.10;;;3.70;;
69795;SDS011;57073;45.650;9.612;2023-07-31T12:53:58;4.70;;;4.30;;
69795;SDS011;57073;45.650;9.612;2023-07-31T12:58:59;6.10;;;4.20;;
69795;SDS011;57073;45.650;9.612;2023-07-31T13:03:59;4.50;;;4.10;;
69795;SDS011;57073;45.650;9.612;2023-07-31T13:09:00;4.40;;;4.00;;
69795;SDS011;57073;45.650;9.612;2023-07-31T13:14:00;10.75;;;4.50;;
69795;SDS011;57073;45.650;9.612;2023-07-31T13:19:01;6.60;;;4.30;;
69795;SDS011;57073;45.650;9.612;2023-07-31T13:24:01;4.60;;;4.20;;
69795;SDS011;57073;45.650;9.612;2023-07-31T13:29:02;5.00;;;4.33;;
69795;SDS011;57073;45.650;9.612;2023-07-31T13:34:02;6.03;;;4.30;;
69795;SDS011;57073;45.650;9.612;2023-07-31T13:39:03;7.13;;;4.80;;
69795;SDS011;57073;45.650;9.612;2023-07-31T13:44:04;5.47;;;4.03;;
69795;SDS011;57073;45.650;9.612;2023-07-31T13:49:04;8.37;;;4.00;;
69795;SDS011;57073;45.650;9.612;2023-07-31T13:54:05;4.53;;;4.13;;
69795;SDS011;57073;45.650;9.612;2023-07-31T13:59:06;4.90;;;4.47;;
69795;SDS011;57073;45.650;9.612;2023-07-31T14:04:07;6.67;;;4.73;;
69795;SDS011;57073;45.650;9.612;2023-07-31T14:09:07;4.80;;;4.40;;
69795;SDS011;57073;45.650;9.612;2023-07-31T14:14:08;6.38;;;4.28;;
69795;SDS011;57073;45.650;9.612;2023-07-31T14:19:10;4.13;;;3.70;;
69795;SDS011;57073;45.650;9.612;2023-07-31T14:24:10;4.75;;;4.35;;
69795;SDS011;57073;45.650;9.612;2023-07-31T14:29:11;5.43;;;4.37;;
69795;SDS011;57073;45.650;9.612;2023-07-31T14:34:12;5.57;;;4.43;;
69795;SDS011;57073;45.650;9.612;2023-07-31T14:39:12;5.60;;;4.53;;
69795;SDS011;57073;45.650;9.612;2023-07-31T14:44:13;4.97;;;4.40;;
69795;SDS011;57073;45.650;9.612;2023-07-31T14:49:13;5.60;;;4.87;;
69795;SDS011;57073;45.650;9.612;2023-07-31T14:54:14;5.00;;;4.50;;
69795;SDS011;57073;45.650;9.612;2023-07-31T14:59:15;6.10;;;5.00;;
69795;SDS011;57073;45.650;9.612;2023-07-31T15:04:15;5.80;;;5.18;;
69795;SDS011;57073;45.650;9.612;2023-07-31T15:09:16;10.50;;;5.10;;
69795;SDS011;57073;45.650;9.612;2023-07-31T15:14:16;6.10;;;5.50;;
69795;SDS011;57073;45.650;9.612;2023-07-31T15:19:16;7.50;;;5.57;;
69795;SDS011;57073;45.650;9.612;2023-07-31T15:24:17;5.07;;;4.67;;
69795;SDS011;57073;45.650;9.612;2023-07-31T15:29:18;5.80;;;4.63;;
69795;SDS011;57073;45.650;9.612;2023-07-31T15:34:19;6.17;;;5.57;;
69795;SDS011;57073;45.650;9.612;2023-07-31T15:39:20;7.38;;;5.65;;
69795;SDS011;57073;45.650;9.612;2023-07-31T15:44:20;6.43;;;5.80;;
69795;SDS011;57073;45.650;9.612;2023-07-31T15:49:21;5.50;;;4.97;;
69795;SDS011;57073;45.650;9.612;2023-07-31T15:54:22;7.03;;;5.40;;
69795;SDS011;57073;45.650;9.612;2023-07-31T15:59:22;10.27;;;5.67;;
69795;SDS011;57073;45.650;9.612;2023-07-31T16:04:23;8.70;;;5.45;;
69795;SDS011;57073;45.650;9.612;2023-07-31T16:09:23;6.37;;;5.67;;
69795;SDS011;57073;45.650;9.612;2023-07-31T16:14:24;8.00;;;5.77;;
69795;SDS011;57073;45.650;9.612;2023-07-31T16:19:25;6.05;;;5.45;;
69795;SDS011;57073;45.650;9.612;2023-07-31T16:24:25;6.53;;;5.33;;
69795;SDS011;57073;45.650;9.612;2023-07-31T16:29:26;7.10;;;6.17;;
69795;SDS011;57073;45.650;9.612;2023-07-31T16:34:26;6.83;;;5.80;;
69795;SDS011;57073;45.650;9.612;2023-07-31T16:39:26;6.70;;;6.10;;
69795;SDS011;57073;45.650;9.612;2023-07-31T16:44:27;5.80;;;5.20;;
69795;SDS011;57073;45.650;9.612;2023-07-31T16:49:27;8.27;;;5.67;;
69795;SDS011;57073;45.650;9.612;2023-07-31T16:54:28;5.80;;;5.30;;
69795;SDS011;57073;45.650;9.612;2023-07-31T16:59:29;5.90;;;5.30;;
69795;SDS011;57073;45.650;9.612;2023-07-31T17:04:29;6.90;;;6.20;;
69795;SDS011;57073;45.650;9.612;2023-07-31T17:09:30;6.25;;;5.30;;
69795;SDS011;57073;45.650;9.612;2023-07-31T17:14:31;6.60;;;5.97;;
69795;SDS011;57073;45.650;9.612;2023-07-31T17:19:31;5.50;;;4.80;;
69795;SDS011;57073;45.650;9.612;2023-07-31T17:24:31;5.90;;;5.37;;
69795;SDS011;57073;45.650;9.612;2023-07-31T17:29:32;6.60;;;5.90;;
69795;SDS011;57073;45.650;9.612;2023-07-31T17:34:32;6.83;;;6.13;;
69795;SDS011;57073;45.650;9.612;2023-07-31T17:39:33;6.47;;;5.30;;
69795;SDS011;57073;45.650;9.612;2023-07-31T17:44:33;6.63;;;5.63;;
69795;SDS011;57073;45.650;9.612;2023-07-31T17:49:33;6.20;;;5.60;;
69795;SDS011;57073;45.650;9.612;2023-07-31T17:54:34;5.47;;;4.97;;
69795;SDS011;57073;45.650;9.612;2023-07-31T17:59:34;6.00;;;5.50;;
69795;SDS011;57073;45.650;9.612;2023-07-31T18:04:34;6.27;;;5.60;;
69795;SDS011;57073;45.650;9.612;2023-07-31T18:09:35;7.37;;;5.90;;
69795;SDS011;57073;45.650;9.612;2023-07-31T18:14:37;5.85;;;5.25;;
69795;SDS011;57073;45.650;9.612;2023-07-31T18:19:39;6.15;;;5.55;;
69795;SDS011;57073;45.650;9.612;2023-07-31T18:24:40;5.63;;;5.13;;
69795;SDS011;57073;45.650;9.612;2023-07-31T18:29:40;7.07;;;6.33;;
69795;SDS011;57073;45.650;9.612;2023-07-31T18:34:41;6.70;;;6.10;;
69795;SDS011;57073;45.650;9.612;2023-07-31T18:39:41;7.13;;;6.43;;
69795;SDS011;57073;45.650;9.612;2023-07-31T18:44:41;6.70;;;6.00;;
69795;SDS011;57073;45.650;9.612;2023-07-31T18:49:42;6.30;;;5.70;;
69795;SDS011;57073;45.650;9.612;2023-07-31T18:54:42;8.00;;;7.03;;
69795;SDS011;57073;45.650;9.612;2023-07-31T18:59:42;8.17;;;6.50;;
69795;SDS011;57073;45.650;9.612;2023-07-31T19:04:43;7.30;;;6.47;;
69795;SDS011;57073;45.650;9.612;2023-07-31T19:09:43;11.07;;;6.60;;
69795;SDS011;57073;45.650;9.612;2023-07-31T19:14:44;7.67;;;6.97;;
69795;SDS011;57073;45.650;9.612;2023-07-31T19:19:44;8.50;;;6.90;;
69795;SDS011;57073;45.650;9.612;2023-07-31T19:24:44;6.83;;;6.23;;
69795;SDS011;57073;45.650;9.612;2023-07-31T19:29:45;7.30;;;6.53;;
69795;SDS011;57073;45.650;9.612;2023-07-31T19:34:45;8.87;;;6.77;;
69795;SDS011;57073;45.650;9.612;2023-07-31T19:39:45;7.37;;;5.90;;
69795;SDS011;57073;45.650;9.612;2023-07-31T19:44:47;8.43;;;5.75;;
69795;SDS011;57073;45.650;9.612;2023-07-31T19:49:48;9.53;;;5.60;;
69795;SDS011;57073;45.650;9.612;2023-07-31T19:54:48;10.77;;;6.20;;
69795;SDS011;57073;45.650;9.612;2023-07-31T19:59:48;7.23;;;5.73;;
69795;SDS011;57073;45.650;9.612;2023-07-31T20:04:49;8.53;;;6.73;;
69795;SDS011;57073;45.650;9.612;2023-07-31T20:09:49;7.60;;;6.90;;
69795;SDS011;57073;45.650;9.612;2023-07-31T20:14:51;9.27;;;8.23;;
69795;SDS011;57073;45.650;9.612;2023-07-31T20:19:54;9.13;;;8.15;;
69795;SDS011;57073;45.650;9.612;2023-07-31T20:24:55;9.23;;;8.10;;
69795;SDS011;57073;45.650;9.612;2023-07-31T20:29:55;9.95;;;7.20;;
69795;SDS011;57073;45.650;9.612;2023-07-31T20:34:55;6.60;;;6.00;;
69795;SDS011;57073;45.650;9.612;2023-07-31T20:39:56;7.70;;;6.17;;
69795;SDS011;57073;45.650;9.612;2023-07-31T20:44:58;7.10;;;6.40;;
69795;SDS011;57073;45.650;9.612;2023-07-31T20:49:59;6.77;;;6.10;;
69795;SDS011;57073;45.650;9.612;2023-07-31T20:54:59;6.87;;;6.17;;
69795;SDS011;57073;45.650;9.612;2023-07-31T21:00:00;7.25;;;5.90;;
69795;SDS011;57073;45.650;9.612;2023-07-31T21:05:00;7.10;;;6.40;;
69795;SDS011;57073;45.650;9.612;2023-07-31T21:10:01;6.43;;;5.83;;
69795;SDS011;57073;45.650;9.612;2023-07-31T21:15:09;6.47;;;5.63;;
69795;SDS011;57073;45.650;9.612;2023-07-31T21:20:11;7.23;;;5.40;;
69795;SDS011;57073;45.650;9.612;2023-07-31T21:25:12;5.88;;;5.18;;
69795;SDS011;57073;45.650;9.612;2023-07-31T21:30:12;6.97;;;5.90;;
69795;SDS011;57073;45.650;9.612;2023-07-31T21:35:12;5.73;;;5.13;;
69795;SDS011;57073;45.650;9.612;2023-07-31T21:40:13;6.47;;;5.60;;
69795;SDS011;57073;45.650;9.612;2023-07-31T21:45:13;8.07;;;6.10;;
69795;SDS011;57073;45.650;9.612;2023-07-31T21:50:14;7.50;;;6.60;;
69795;SDS011;57073;45.650;9.612;2023-07-31T21:55:14;6.57;;;5.70;;
69795;SDS011;57073;45.650;9.612;2023-07-31T22:00:15;7.75;;;5.95;;
69795;SDS011;57073;45.650;9.612;2023-07-31T22:05:15;10.23;;;6.80;;
69795;SDS011;57073;45.650;9.612;2023-07-31T22:10:16;7.73;;;5.97;;
69795;SDS011;57073;45.650;9.612;2023-07-31T22:15:16;7.10;;;6.40;;
69795;SDS011;57073;45.650;9.612;2023-07-31T22:20:17;6.00;;;5.30;;
69795;SDS011;57073;45.650;9.612;2023-07-31T22:25:17;5.97;;;5.37;;
69795;SDS011;57073;45.650;9.612;2023-07-31T22:30:17;6.10;;;5.40;;
69795;SDS011;57073;45.650;9.612;2023-07-31T22:35:18;7.53;;;5.20;;
69795;SDS011;57073;45.650;9.612;2023-07-31T22:40:18;6.17;;;5.43;;
69795;SDS011;57073;45.650;9.612;2023-07-31T22:45:19;7.47;;;5.37;;
69795;SDS011;57073;45.650;9.612;2023-07-31T22:50:19;6.80;;;5.40;;
69795;SDS011;57073;45.650;9.612;2023-07-31T22:55:19;5.43;;;4.90;;
69795;SDS011;57073;45.650;9.612;2023-07-31T23:00:20;5.53;;;5.03;;
69795;SDS011;57073;45.650;9.612;2023-07-31T23:05:20;5.90;;;5.30;;
69795;SDS011;57073;45.650;9.612;2023-07-31T23:10:20;7.47;;;5.67;;
69795;SDS011;57073;45.650;9.612;2023-07-31T23:15:21;6.27;;;5.43;;
69795;SDS011;57073;45.650;9.612;2023-07-31T23:20:21;7.60;;;5.93;;
69795;SDS011;57073;45.650;9.612;2023-07-31T23:25:22;9.17;;;6.40;;
69795;SDS011;57073;45.650;9.612;2023-07-31T23:30:22;8.10;;;6.23;;
69795;SDS011;57073;45.650;9.612;2023-07-31T23:35:22;8.80;;;5.90;;
69795;SDS011;57073;45.650;9.612;2023-07-31T23:40:23;7.57;;;6.43;;
69795;SDS011;57073;45.650;9.612;2023-07-31T23:45:25;7.25;;;6.55;;
69795;SDS011;57073;45.650;9.612;2023-07-31T23:50:25;6.00;;;5.40;;
69795;SDS011;57073;45.650;9.612;2023-07-31T23:55:26;5.60;;;5.00;;
